Time;durP1;ratioP1;P1;durP2;ratioP2;P2;SDS_P1;SDS_P2;PMS_P1;PMS_P2;Temp;Humidity;BMP_temperature;BMP_pressure;BME280_temperature;BME280_humidity;BME280_pressure;Samples;Min_cycle;Max_cycle;Signal;HPM_P1;HPM_P2
2023/11/08 00:01:39;;;;;;;5.38;3.50;;;7.20;99.90;;;;;;5099999;28;20193;-77
2023/11/08 00:04:06;;;;;;;3.58;3.38;;;7.20;99.90;;;;;;5099622;28;20223;-77
2023/11/08 00:06:34;;;;;;;3.38;3.17;;;7.30;99.90;;;;;;5100271;28;20201;-77
2023/11/08 00:09:01;;;;;;;4.25;3.95;;;7.30;99.90;;;;;;5100145;28;20544;-77
2023/11/08 00:11:28;;;;;;;4.38;4.07;;;7.30;99.90;;;;;;5100876;27;20200;-77
2023/11/08 00:13:55;;;;;;;4.10;3.80;;;7.30;99.90;;;;;;5100851;28;20221;-76
2023/11/08 00:16:24;;;;;;;4.53;4.10;;;7.30;99.90;;;;;;5103029;28;20619;-76
2023/11/08 00:18:50;;;;;;;4.20;3.90;;;7.30;99.90;;;;;;5102066;28;20212;-76
2023/11/08 00:21:17;;;;;;;4.13;3.70;;;7.30;99.90;;;;;;5103214;28;20204;-77
2023/11/08 00:23:44;;;;;;;3.85;3.65;;;7.20;99.90;;;;;;5102217;28;20216;-76
2023/11/08 00:26:12;;;;;;;3.67;3.30;;;7.20;99.90;;;;;;5101164;28;20258;-77
2023/11/08 00:28:39;;;;;;;4.70;3.70;;;7.20;99.90;;;;;;5101900;28;20574;-77
2023/11/08 00:31:07;;;;;;;3.67;3.47;;;7.20;99.90;;;;;;5100263;28;20246;-76
2023/11/08 00:33:35;;;;;;;4.20;3.90;;;7.20;99.90;;;;;;5099501;28;20223;-77
2023/11/08 00:36:02;;;;;;;3.95;3.63;;;7.20;99.90;;;;;;5100050;28;20233;-76
2023/11/08 00:38:29;;;;;;;3.60;3.40;;;7.20;99.90;;;;;;5100199;28;20250;-76
2023/11/08 00:40:56;;;;;;;3.47;3.28;;;7.20;99.90;;;;;;5099406;28;20204;-76
2023/11/08 00:43:23;;;;;;;3.75;3.45;;;7.20;99.90;;;;;;5096982;28;21711;-77
2023/11/08 00:45:51;;;;;;;3.53;3.33;;;7.10;99.90;;;;;;5099495;28;20205;-76
2023/11/08 00:48:23;;;;;;;3.38;3.17;;;7.10;99.90;;;;;;5100025;28;20312;-78
2023/11/08 00:50:54;;;;;;;3.20;3.00;;;7.10;99.90;;;;;;5097424;28;20220;-76
2023/11/08 00:53:21;;;;;;;3.53;3.22;;;7.10;99.90;;;;;;5100237;28;20216;-76
2023/11/08 00:55:48;;;;;;;3.75;3.45;;;7.10;99.90;;;;;;5095575;28;20889;-75
2023/11/08 00:58:15;;;;;;;4.18;3.33;;;7.10;99.90;;;;;;5098808;28;20200;-75
2023/11/08 01:00:42;;;;;;;3.45;3.15;;;7.00;99.90;;;;;;5097245;28;20321;-76
2023/11/08 01:03:09;;;;;;;3.67;3.47;;;7.00;99.90;;;;;;5093750;28;20225;-76
2023/11/08 01:05:36;;;;;;;3.53;3.33;;;7.00;99.90;;;;;;5098270;28;20197;-76
2023/11/08 01:08:07;;;;;;;3.40;3.20;;;6.90;99.90;;;;;;5096248;28;20220;-76
2023/11/08 01:10:34;;;;;;;3.60;3.40;;;6.90;99.90;;;;;;5094774;28;21170;-77
2023/11/08 01:13:01;;;;;;;3.35;3.15;;;6.90;99.90;;;;;;5094621;28;20237;-76
2023/11/08 01:15:28;;;;;;;3.25;3.05;;;6.80;99.90;;;;;;5096756;28;20286;-75
2023/11/08 01:17:55;;;;;;;3.28;3.08;;;6.80;99.90;;;;;;5097838;28;20204;-75
2023/11/08 01:20:22;;;;;;;3.08;2.92;;;6.80;99.90;;;;;;5101139;28;20201;-76
2023/11/08 01:22:50;;;;;;;3.53;3.33;;;6.70;99.90;;;;;;5096546;28;20216;-76
2023/11/08 01:25:18;;;;;;;3.55;3.35;;;6.70;99.90;;;;;;5096497;28;20763;-76
2023/11/08 01:27:45;;;;;;;3.42;3.22;;;6.70;99.90;;;;;;5097291;28;20197;-74
2023/11/08 01:30:13;;;;;;;3.90;3.63;;;6.70;99.90;;;;;;5098632;28;20200;-76
2023/11/08 01:32:40;;;;;;;4.00;3.72;;;6.70;99.90;;;;;;5099618;28;20254;-75
2023/11/08 01:35:08;;;;;;;3.83;3.53;;;6.70;99.90;;;;;;5100747;28;20640;-76
2023/11/08 01:37:39;;;;;;;3.97;3.78;;;6.70;99.90;;;;;;5097104;28;20236;-77
2023/11/08 01:40:08;;;;;;;3.88;3.67;;;6.70;99.90;;;;;;5096780;28;20208;-76
2023/11/08 01:42:36;;;;;;;3.58;3.35;;;6.70;99.90;;;;;;5097547;28;20685;-77
2023/11/08 01:45:04;;;;;;;3.70;3.45;;;6.60;99.90;;;;;;5097272;28;20254;-76
2023/11/08 01:47:34;;;;;;;3.33;3.13;;;6.60;99.90;;;;;;5094805;28;20201;-75
2023/11/08 01:50:02;;;;;;;3.72;3.45;;;6.60;99.90;;;;;;5100136;28;20205;-76
2023/11/08 01:52:30;;;;;;;3.58;3.38;;;6.60;99.90;;;;;;5094889;28;20205;-76
2023/11/08 01:54:58;;;;;;;3.20;3.00;;;6.50;99.90;;;;;;5098124;28;20801;-76
2023/11/08 01:57:26;;;;;;;4.45;4.15;;;6.50;99.90;;;;;;5100414;28;20569;-76
2023/11/08 01:59:57;;;;;;;3.95;3.67;;;6.50;99.90;;;;;;5096675;28;20241;-76
2023/11/08 02:02:25;;;;;;;3.78;3.58;;;6.50;99.90;;;;;;5097417;28;20285;-76
2023/11/08 02:04:53;;;;;;;4.00;3.70;;;6.50;99.90;;;;;;5096410;28;20207;-77
2023/11/08 02:07:21;;;;;;;3.83;3.63;;;6.50;99.90;;;;;;5098749;28;20740;-77
2023/11/08 02:09:49;;;;;;;3.72;3.42;;;6.50;99.90;;;;;;5098066;28;20205;-75
2023/11/08 02:12:16;;;;;;;4.25;3.95;;;6.50;99.90;;;;;;5100676;28;20208;-78
2023/11/08 02:15:05;;;;;;;4.40;4.10;;;6.50;99.90;;;;;;5097967;28;20220;-76
2023/11/08 02:17:32;;;;;;;4.28;3.97;;;6.50;99.90;;;;;;5096891;28;20704;-77
2023/11/08 02:19:59;;;;;;;4.07;3.78;;;6.40;99.90;;;;;;5095670;28;20699;-76
2023/11/08 02:22:27;;;;;;;4.07;3.78;;;6.30;99.90;;;;;;5095351;28;20829;-76
2023/11/08 02:24:55;;;;;;;3.55;3.35;;;6.30;99.90;;;;;;5095418;28;20189;-77
2023/11/08 02:27:22;;;;;;;3.70;3.50;;;6.30;99.90;;;;;;5094267;28;20201;-77
2023/11/08 02:29:49;;;;;;;3.35;3.15;;;6.20;99.90;;;;;;5096002;28;20253;-77
2023/11/08 02:32:16;;;;;;;3.63;3.42;;;6.20;99.90;;;;;;5096086;28;20205;-75
2023/11/08 02:34:43;;;;;;;3.30;3.10;;;6.20;99.90;;;;;;5095278;28;20265;-76
2023/11/08 02:37:10;;;;;;;3.63;3.33;;;6.20;99.90;;;;;;5093416;28;20262;-76
2023/11/08 02:39:37;;;;;;;3.35;3.15;;;6.20;99.90;;;;;;5097738;28;20200;-77
2023/11/08 02:42:08;;;;;;;3.22;3.03;;;6.20;99.90;;;;;;5100783;28;20253;-75
2023/11/08 02:44:35;;;;;;;3.20;3.00;;;6.20;99.90;;;;;;5098664;28;20847;-76
2023/11/08 02:47:02;;;;;;;3.40;3.20;;;6.20;99.90;;;;;;5097348;28;20197;-77
2023/11/08 02:49:30;;;;;;;3.08;2.83;;;6.20;99.90;;;;;;5099099;28;20197;-79
2023/11/08 02:51:58;;;;;;;2.95;2.85;;;6.20;99.90;;;;;;5098366;28;20254;-78
2023/11/08 02:54:25;;;;;;;3.95;2.83;;;6.10;99.90;;;;;;5099654;28;20336;-76
2023/11/08 02:56:52;;;;;;;2.63;2.42;;;6.10;99.90;;;;;;5103239;28;20213;-76
2023/11/08 02:59:21;;;;;;;2.80;2.70;;;6.00;99.90;;;;;;5102852;28;20197;-76
2023/11/08 03:01:49;;;;;;;3.13;2.92;;;6.00;99.90;;;;;;5099592;28;20205;-76
2023/11/08 03:04:18;;;;;;;3.00;2.80;;;6.00;99.90;;;;;;5102383;28;20362;-75
2023/11/08 03:06:46;;;;;;;3.72;3.45;;;6.00;99.90;;;;;;5099313;28;20200;-77
2023/11/08 03:09:13;;;;;;;3.78;3.47;;;6.00;99.90;;;;;;5103489;27;20196;-76
2023/11/08 03:11:40;;;;;;;4.30;4.00;;;5.90;99.90;;;;;;5099151;28;20206;-76
2023/11/08 03:14:07;;;;;;;4.53;4.13;;;5.80;99.90;;;;;;5103525;28;21088;-76
2023/11/08 03:16:36;;;;;;;4.10;3.70;;;5.60;99.90;;;;;;5098892;28;20337;-76
2023/11/08 03:19:03;;;;;;;3.80;3.58;;;5.50;99.90;;;;;;5099981;28;20202;-75
2023/11/08 03:21:30;;;;;;;3.40;3.20;;;5.50;99.90;;;;;;5096123;28;20193;-76
2023/11/08 03:24:00;;;;;;;3.60;3.40;;;5.40;99.90;;;;;;5100822;28;20217;-76
2023/11/08 03:26:27;;;;;;;3.13;2.92;;;5.50;99.90;;;;;;5101881;28;20269;-76
2023/11/08 03:28:54;;;;;;;3.17;2.97;;;5.50;99.90;;;;;;5100648;28;20639;-77
2023/11/08 03:31:21;;;;;;;3.33;3.13;;;5.50;99.90;;;;;;5099125;28;20193;-75
2023/11/08 03:33:50;;;;;;;2.85;2.75;;;5.60;99.90;;;;;;5101159;28;20317;-77
2023/11/08 03:36:17;;;;;;;2.90;2.80;;;5.60;99.90;;;;;;5100888;28;20261;-77
2023/11/08 03:38:43;;;;;;;2.38;2.28;;;5.60;99.90;;;;;;5098763;28;20300;-77
2023/11/08 03:41:10;;;;;;;2.83;2.63;;;5.60;99.90;;;;;;5103393;28;20659;-76
2023/11/08 03:43:38;;;;;;;2.45;2.35;;;5.70;99.90;;;;;;5099035;28;20266;-76
2023/11/08 03:46:05;;;;;;;2.60;2.50;;;5.70;99.90;;;;;;5100399;28;20189;-77
2023/11/08 03:48:32;;;;;;;2.90;2.70;;;5.70;99.90;;;;;;5098714;28;20261;-77
2023/11/08 03:51:02;;;;;;;2.83;2.72;;;5.70;99.90;;;;;;5098725;28;20201;-76
2023/11/08 03:53:30;;;;;;;2.55;2.45;;;5.70;99.90;;;;;;5095526;28;20221;-76
2023/11/08 03:55:57;;;;;;;2.65;2.53;;;5.60;99.90;;;;;;5099244;28;20216;-77
2023/11/08 03:58:24;;;;;;;2.63;2.45;;;5.70;99.90;;;;;;5099058;28;20583;-76
2023/11/08 04:00:51;;;;;;;2.78;2.67;;;5.60;99.90;;;;;;5098254;28;20201;-76
2023/11/08 04:03:19;;;;;;;2.80;2.67;;;5.60;99.90;;;;;;5094148;28;20260;-77
2023/11/08 04:05:45;;;;;;;2.35;2.22;;;5.60;99.90;;;;;;5096854;28;20193;-76
2023/11/08 04:08:14;;;;;;;2.50;2.40;;;5.60;99.90;;;;;;5096023;28;20214;-76
2023/11/08 04:10:41;;;;;;;3.15;2.95;;;5.50;99.90;;;;;;5103089;28;20201;-76
2023/11/08 04:13:09;;;;;;;2.90;2.80;;;5.50;99.90;;;;;;5099775;28;20220;-76
2023/11/08 04:15:36;;;;;;;2.67;2.55;;;5.50;99.90;;;;;;5098827;28;20757;-77
2023/11/08 04:18:05;;;;;;;2.88;2.78;;;5.50;99.90;;;;;;5101329;28;20201;-77
2023/11/08 04:20:32;;;;;;;2.60;2.50;;;5.50;99.90;;;;;;5099152;28;20702;-76
2023/11/08 04:22:59;;;;;;;2.58;2.45;;;5.50;99.90;;;;;;5097687;28;20221;-76
2023/11/08 04:25:27;;;;;;;2.60;2.50;;;5.50;99.90;;;;;;5100826;28;20219;-77
2023/11/08 04:27:55;;;;;;;2.67;2.58;;;5.50;99.90;;;;;;5097673;28;20202;-75
2023/11/08 04:30:22;;;;;;;3.05;2.90;;;5.50;99.90;;;;;;5100391;28;20201;-76
2023/11/08 04:32:49;;;;;;;2.55;2.42;;;5.50;99.90;;;;;;5094393;28;20228;-75
2023/11/08 04:35:17;;;;;;;2.92;2.83;;;5.40;99.90;;;;;;5098516;28;20302;-77
2023/11/08 04:37:44;;;;;;;3.15;2.95;;;5.50;99.90;;;;;;5098143;28;20205;-76
2023/11/08 04:40:12;;;;;;;2.70;2.60;;;5.50;99.90;;;;;;5099293;28;20193;-76
2023/11/08 04:42:41;;;;;;;2.78;2.67;;;5.50;99.90;;;;;;5099984;28;20796;-75
2023/11/08 04:45:09;;;;;;;2.42;2.33;;;5.50;99.90;;;;;;5098207;28;21972;-77
2023/11/08 04:47:37;;;;;;;2.67;2.58;;;5.50;99.90;;;;;;5096001;28;20193;-76
2023/11/08 04:50:05;;;;;;;2.70;2.60;;;5.40;99.90;;;;;;5095507;28;20217;-76
2023/11/08 04:52:32;;;;;;;3.05;2.85;;;5.40;99.90;;;;;;5096295;28;20193;-76
2023/11/08 04:54:59;;;;;;;2.20;2.10;;;5.30;99.90;;;;;;5097372;28;20840;-77
2023/11/08 04:57:26;;;;;;;3.22;3.05;;;5.30;99.90;;;;;;5099505;28;20758;-77
2023/11/08 04:59:54;;;;;;;2.80;2.60;;;5.30;99.90;;;;;;5096726;28;20197;-75
2023/11/08 05:02:21;;;;;;;3.40;3.20;;;5.20;99.90;;;;;;5092782;28;20333;-76
2023/11/08 05:04:49;;;;;;;2.80;2.60;;;5.20;99.90;;;;;;5096729;28;20285;-76
2023/11/08 05:07:17;;;;;;;3.30;3.10;;;5.20;99.90;;;;;;5094136;28;20193;-75
2023/11/08 05:09:44;;;;;;;5.43;3.45;;;5.20;99.90;;;;;;5097496;28;20780;-76
2023/11/08 05:12:13;;;;;;;3.10;2.90;;;5.10;99.90;;;;;;5097264;28;20659;-76
2023/11/08 05:14:40;;;;;;;2.92;2.78;;;5.10;99.90;;;;;;5099932;28;20304;-77
2023/11/08 05:17:08;;;;;;;3.50;3.25;;;5.00;99.90;;;;;;5096565;28;20263;-76
2023/11/08 05:19:35;;;;;;;2.75;2.65;;;5.00;99.90;;;;;;5098978;27;20209;-76
2023/11/08 05:22:02;;;;;;;3.58;3.38;;;5.00;99.90;;;;;;5099877;27;20196;-76
2023/11/08 05:24:30;;;;;;;3.85;3.22;;;5.00;99.90;;;;;;5097004;28;20569;-77
2023/11/08 05:26:58;;;;;;;3.78;3.58;;;5.00;99.90;;;;;;5098254;28;20204;-75
2023/11/08 05:29:25;;;;;;;3.40;3.20;;;5.00;99.90;;;;;;5096869;28;20203;-75
2023/11/08 05:31:53;;;;;;;3.45;3.15;;;5.00;99.90;;;;;;5096518;28;20687;-76
2023/11/08 05:34:21;;;;;;;3.58;3.13;;;4.90;99.90;;;;;;5097533;28;20739;-76
2023/11/08 05:36:48;;;;;;;3.55;3.13;;;5.00;99.90;;;;;;5095591;28;20225;-76
2023/11/08 05:39:22;;;;;;;3.40;3.20;;;4.90;99.90;;;;;;5098184;28;20197;-76
2023/11/08 05:41:49;;;;;;;3.30;3.10;;;5.00;99.90;;;;;;5096012;28;20304;-76
2023/11/08 05:44:16;;;;;;;3.15;2.95;;;5.00;99.90;;;;;;5096361;28;20308;-75
2023/11/08 05:46:43;;;;;;;2.78;2.67;;;4.90;99.90;;;;;;5096531;28;20283;-76
2023/11/08 05:49:10;;;;;;;2.95;2.75;;;4.90;99.90;;;;;;5096610;28;20202;-76
2023/11/08 05:51:39;;;;;;;2.97;2.78;;;5.00;99.90;;;;;;5098577;28;20791;-76
2023/11/08 05:54:07;;;;;;;2.92;2.78;;;4.90;99.90;;;;;;5096236;28;20270;-74
2023/11/08 05:56:34;;;;;;;3.17;2.97;;;5.00;99.90;;;;;;5096669;28;20251;-76
2023/11/08 05:59:01;;;;;;;3.20;3.00;;;4.90;99.90;;;;;;5095845;28;20201;-75
2023/11/08 06:01:28;;;;;;;3.05;2.88;;;4.90;99.90;;;;;;5095813;28;20205;-76
2023/11/08 06:03:55;;;;;;;3.03;2.92;;;4.90;99.90;;;;;;5097763;28;20217;-76
2023/11/08 06:06:23;;;;;;;3.47;3.28;;;4.90;99.90;;;;;;5097060;28;20208;-77
2023/11/08 06:08:52;;;;;;;3.28;3.00;;;4.90;99.90;;;;;;5094032;28;20288;-76
2023/11/08 06:11:19;;;;;;;2.63;2.53;;;4.90;99.90;;;;;;5093481;28;20275;-75
2023/11/08 06:13:46;;;;;;;3.38;3.17;;;4.90;99.90;;;;;;5096657;28;20634;-75
2023/11/08 06:16:13;;;;;;;3.00;2.80;;;4.90;99.90;;;;;;5092401;28;20266;-76
2023/11/08 06:18:40;;;;;;;3.08;2.90;;;4.90;99.90;;;;;;5091698;28;20202;-77
2023/11/08 06:21:08;;;;;;;3.30;3.10;;;4.80;99.90;;;;;;5092375;28;20321;-75
2023/11/08 06:23:35;;;;;;;3.25;3.05;;;4.80;99.90;;;;;;5099349;28;20227;-76
2023/11/08 06:26:04;;;;;;;3.10;2.90;;;4.90;99.90;;;;;;5101146;28;20894;-76
2023/11/08 06:28:31;;;;;;;3.00;2.80;;;4.90;99.90;;;;;;5100726;28;20194;-75
2023/11/08 06:30:59;;;;;;;5.22;3.13;;;4.90;99.90;;;;;;5102211;28;20209;-75
2023/11/08 06:33:26;;;;;;;3.20;3.00;;;5.00;99.90;;;;;;5102972;28;20228;-76
2023/11/08 06:35:53;;;;;;;2.70;2.50;;;5.00;99.90;;;;;;5104450;28;20208;-76
2023/11/08 06:38:20;;;;;;;3.25;3.05;;;5.00;99.90;;;;;;5100532;28;20197;-75
2023/11/08 06:40:48;;;;;;;3.25;3.05;;;4.90;99.90;;;;;;5099935;28;20217;-75
2023/11/08 06:43:16;;;;;;;4.55;4.25;;;4.90;99.90;;;;;;5101534;28;20220;-76
2023/11/08 06:45:44;;;;;;;4.40;4.10;;;5.00;99.90;;;;;;5101965;28;20884;-75
2023/11/08 06:48:11;;;;;;;3.63;3.42;;;5.00;99.90;;;;;;5097278;28;20193;-76
2023/11/08 06:50:38;;;;;;;4.13;3.83;;;5.00;99.90;;;;;;5098641;28;20288;-76
2023/11/08 06:53:05;;;;;;;4.03;3.72;;;5.00;99.90;;;;;;5101478;28;20267;-75
2023/11/08 06:55:33;;;;;;;3.58;3.38;;;5.00;99.90;;;;;;5102006;27;20197;-75
2023/11/08 06:58:00;;;;;;;3.47;3.28;;;5.10;99.90;;;;;;5097843;28;20216;-75
2023/11/08 07:00:29;;;;;;;3.58;3.38;;;5.10;99.90;;;;;;5099530;28;20308;-77
2023/11/08 07:02:56;;;;;;;3.45;3.25;;;5.10;99.90;;;;;;5099434;28;20225;-75
2023/11/08 07:05:23;;;;;;;2.95;2.75;;;5.20;99.90;;;;;;5102371;28;20201;-76
2023/11/08 07:07:50;;;;;;;2.78;2.67;;;5.20;99.90;;;;;;5100635;28;20209;-76
2023/11/08 07:10:18;;;;;;;2.50;2.40;;;5.20;99.90;;;;;;5098174;28;20225;-76
2023/11/08 07:12:45;;;;;;;3.42;3.22;;;5.30;99.90;;;;;;5101674;28;20746;-75
2023/11/08 07:15:13;;;;;;;2.90;2.80;;;5.30;99.90;;;;;;5097872;28;20254;-75
2023/11/08 07:17:41;;;;;;;3.42;3.22;;;5.50;99.90;;;;;;5098048;28;20305;-76
2023/11/08 07:20:10;;;;;;;2.75;2.65;;;6.20;99.90;;;;;;5101488;28;20304;-75
2023/11/08 07:22:37;;;;;;;3.22;3.03;;;7.20;99.90;;;;;;5102415;28;20228;-76
2023/11/08 07:25:06;;;;;;;3.70;3.40;;;8.00;99.90;;;;;;5099454;28;20201;-77
2023/11/08 07:27:34;;;;;;;3.53;3.20;;;8.70;99.90;;;;;;5100030;28;20203;-77
2023/11/08 07:30:01;;;;;;;3.95;3.65;;;9.30;99.90;;;;;;5096629;28;20200;-77
2023/11/08 07:32:29;;;;;;;3.53;3.28;;;9.90;99.90;;;;;;5097160;27;20201;-75
2023/11/08 07:34:58;;;;;;;3.10;2.90;;;10.40;99.90;;;;;;5092955;28;20198;-77
2023/11/08 07:37:25;;;;;;;4.22;3.35;;;10.80;99.90;;;;;;5092915;27;20229;-76
2023/11/08 07:39:52;;;;;;;4.13;3.47;;;11.30;99.90;;;;;;5090974;28;20201;-77
2023/11/08 07:42:21;;;;;;;3.28;3.08;;;11.70;99.90;;;;;;5092033;28;20293;-78
2023/11/08 07:44:48;;;;;;;3.40;3.10;;;12.00;99.90;;;;;;5095557;28;20208;-77
2023/11/08 07:47:15;;;;;;;2.60;2.47;;;12.40;99.90;;;;;;5093618;28;20204;-77
2023/11/08 07:49:42;;;;;;;3.03;2.83;;;12.70;99.90;;;;;;5093434;28;20205;-77
2023/11/08 07:52:11;;;;;;;3.05;2.85;;;12.70;99.90;;;;;;5097572;28;20197;-77
2023/11/08 07:54:39;;;;;;;3.00;2.80;;;12.90;99.90;;;;;;5096630;28;20281;-77
2023/11/08 07:57:06;;;;;;;3.22;3.03;;;13.20;99.90;;;;;;5091567;28;20344;-76
2023/11/08 07:59:34;;;;;;;3.42;3.13;;;13.50;99.90;;;;;;5091574;28;20293;-78
2023/11/08 08:02:01;;;;;;;3.33;2.67;;;13.80;99.90;;;;;;5093471;28;20197;-78
2023/11/08 08:04:31;;;;;;;2.90;2.70;;;14.00;99.90;;;;;;5088995;28;20274;-77
2023/11/08 08:06:58;;;;;;;3.03;2.83;;;14.30;99.90;;;;;;5092716;28;20197;-78
2023/11/08 08:09:26;;;;;;;5.00;3.00;;;14.50;99.90;;;;;;5096336;28;20192;-78
2023/11/08 08:11:53;;;;;;;3.10;2.90;;;14.50;99.90;;;;;;5096113;28;20822;-78
2023/11/08 08:14:20;;;;;;;3.65;3.03;;;14.60;99.90;;;;;;5093013;28;20224;-77
2023/11/08 08:16:48;;;;;;;6.05;2.88;;;14.70;99.90;;;;;;5094177;28;20958;-78
2023/11/08 08:19:16;;;;;;;2.95;2.75;;;14.70;99.90;;;;;;5097792;27;20217;-78
2023/11/08 08:21:43;;;;;;;2.50;2.30;;;14.80;99.90;;;;;;5098815;28;20233;-77
2023/11/08 08:24:11;;;;;;;2.60;2.40;;;15.00;99.90;;;;;;5098647;28;20691;-78
2023/11/08 08:26:39;;;;;;;2.47;2.28;;;15.30;99.90;;;;;;5096690;28;20632;-77
2023/11/08 08:29:09;;;;;;;2.83;2.10;;;15.40;99.90;;;;;;5096784;28;20323;-78
2023/11/08 08:31:36;;;;;;;3.10;2.72;;;15.30;99.90;;;;;;5099013;28;20204;-77
2023/11/08 08:34:03;;;;;;;2.47;2.28;;;15.00;99.90;;;;;;5095354;28;20870;-78
2023/11/08 08:36:31;;;;;;;2.40;2.20;;;14.80;99.90;;;;;;5095636;28;20682;-77
2023/11/08 08:38:58;;;;;;;2.13;1.95;;;14.70;99.90;;;;;;5097424;28;20204;-78
2023/11/08 08:41:25;;;;;;;2.40;2.17;;;14.70;99.90;;;;;;5103352;28;20197;-79
2023/11/08 08:43:54;;;;;;;2.78;2.58;;;14.70;99.90;;;;;;5101399;28;20224;-78
2023/11/08 08:46:21;;;;;;;5.38;2.00;;;14.70;99.90;;;;;;5097284;28;20196;-77
2023/11/08 08:48:49;;;;;;;2.60;2.35;;;14.70;99.90;;;;;;5096079;28;20201;-79
2023/11/08 08:51:16;;;;;;;2.58;1.90;;;14.90;99.90;;;;;;5094969;28;20205;-76
2023/11/08 08:53:44;;;;;;;6.57;1.90;;;14.90;99.90;;;;;;5099939;28;20886;-75
2023/11/08 08:56:11;;;;;;;2.20;2.10;;;14.90;99.90;;;;;;5091364;28;20197;-77
2023/11/08 08:58:38;;;;;;;2.60;2.40;;;14.60;99.90;;;;;;5091823;28;20571;-75
2023/11/08 09:01:08;;;;;;;3.75;2.38;;;14.40;99.90;;;;;;5091607;28;20190;-76
2023/11/08 09:03:34;;;;;;;2.50;2.13;;;14.10;99.90;;;;;;5094924;28;20777;-76
2023/11/08 09:06:01;;;;;;;2.53;2.33;;;14.10;99.90;;;;;;5092470;28;20208;-75
2023/11/08 09:08:28;;;;;;;2.58;2.38;;;14.90;99.90;;;;;;5093274;28;20706;-75
2023/11/08 09:10:55;;;;;;;2.33;2.20;;;16.60;99.90;;;;;;5092213;28;20230;-76
2023/11/08 09:13:22;;;;;;;2.40;2.20;;;17.70;99.90;;;;;;5096009;28;20976;-74
2023/11/08 09:15:49;;;;;;;2.25;2.10;;;18.40;99.90;;;;;;5092468;28;20250;-76
2023/11/08 09:18:18;;;;;;;2.22;2.10;;;18.50;99.90;;;;;;5091923;28;20293;-76
2023/11/08 09:20:45;;;;;;;2.30;2.10;;;17.70;99.90;;;;;;5089370;28;20225;-76
2023/11/08 09:23:12;;;;;;;2.10;2.00;;;16.90;99.90;;;;;;5090359;28;20874;-76
2023/11/08 09:25:40;;;;;;;5.03;2.65;;;16.30;99.90;;;;;;5088669;28;20197;-75
2023/11/08 09:28:06;;;;;;;2.40;2.20;;;15.70;99.90;;;;;;5091122;28;20189;-75
2023/11/08 09:30:34;;;;;;;2.40;2.25;;;15.60;99.90;;;;;;5089203;28;20200;-74
2023/11/08 09:33:01;;;;;;;4.38;2.30;;;15.40;99.90;;;;;;5090466;28;20227;-75
2023/11/08 09:35:30;;;;;;;2.78;2.03;;;15.10;99.90;;;;;;5091745;28;20197;-74
2023/11/08 09:37:58;;;;;;;2.25;2.10;;;15.00;99.90;;;;;;5093726;28;20219;-75
2023/11/08 09:40:25;;;;;;;3.05;2.00;;;14.90;99.90;;;;;;5093293;28;20202;-75
2023/11/08 09:42:56;;;;;;;2.08;1.70;;;14.80;99.90;;;;;;5087711;28;20221;-75
2023/11/08 09:45:26;;;;;;;2.08;1.98;;;14.90;99.90;;;;;;5091479;28;20200;-74
2023/11/08 09:47:53;;;;;;;1.90;1.80;;;15.00;99.90;;;;;;5087805;28;20220;-75
2023/11/08 09:50:22;;;;;;;2.53;2.33;;;14.80;99.90;;;;;;5091440;28;20197;-74
2023/11/08 09:52:52;;;;;;;2.47;1.98;;;14.50;99.90;;;;;;5092156;28;20702;-76
2023/11/08 09:55:19;;;;;;;2.30;2.10;;;14.60;99.90;;;;;;5092915;28;20693;-75
2023/11/08 09:57:48;;;;;;;2.22;2.08;;;14.40;99.90;;;;;;5091735;28;20277;-74
2023/11/08 10:00:20;;;;;;;2.58;2.17;;;14.30;99.90;;;;;;5090538;28;20201;-75
2023/11/08 10:02:47;;;;;;;2.75;2.30;;;14.10;99.90;;;;;;5091594;28;20222;-79
2023/11/08 10:05:15;;;;;;;2.38;2.20;;;14.40;99.90;;;;;;5089291;28;20200;-75
2023/11/08 10:07:42;;;;;;;2.75;2.03;;;14.50;99.90;;;;;;5086748;28;20224;-72
2023/11/08 10:10:11;;;;;;;2.10;1.98;;;14.50;99.90;;;;;;5091969;28;20249;-73
2023/11/08 10:12:39;;;;;;;1.95;1.85;;;14.30;99.90;;;;;;5086754;28;20675;-72
2023/11/08 10:15:07;;;;;;;2.00;1.90;;;14.30;99.90;;;;;;5087772;28;20255;-73
2023/11/08 10:17:37;;;;;;;2.25;2.05;;;14.40;99.90;;;;;;5090978;28;20244;-72
2023/11/08 10:20:08;;;;;;;1.98;1.88;;;14.50;99.90;;;;;;5086529;28;20219;-76
2023/11/08 10:22:37;;;;;;;1.80;1.70;;;14.40;99.90;;;;;;5090351;28;20201;-73
2023/11/08 10:25:08;;;;;;;2.05;1.60;;;14.40;99.90;;;;;;5089859;28;20258;-74
2023/11/08 10:27:37;;;;;;;4.70;1.70;;;14.10;99.90;;;;;;5089037;28;20192;-74
2023/11/08 10:30:16;;;;;;;1.85;1.75;;;13.80;99.90;;;;;;5090566;28;20197;-74
2023/11/08 10:32:44;;;;;;;2.85;1.75;;;14.00;99.90;;;;;;5088792;28;20225;-74
2023/11/08 10:35:16;;;;;;;2.53;1.85;;;14.10;99.90;;;;;;5086845;28;20193;-73
2023/11/08 10:37:43;;;;;;;1.90;1.80;;;14.10;99.90;;;;;;5086221;28;20240;-76
2023/11/08 10:40:13;;;;;;;1.73;1.63;;;14.20;99.90;;;;;;5089606;28;20209;-78
2023/11/08 10:42:49;;;;;;;1.67;1.58;;;14.40;99.90;;;;;;5091351;28;20849;-78
2023/11/08 10:45:16;;;;;;;7.22;1.70;;;14.60;99.90;;;;;;5093292;28;20622;-77
2023/11/08 10:47:44;;;;;;;2.03;1.83;;;14.80;99.90;;;;;;5092081;28;20723;-77
2023/11/08 10:50:11;;;;;;;1.85;1.67;;;14.80;99.90;;;;;;5097188;28;20201;-78
2023/11/08 10:52:40;;;;;;;1.55;1.55;;;15.00;99.90;;;;;;5092901;28;20204;-79
2023/11/08 10:55:09;;;;;;;1.90;1.80;;;15.30;99.90;;;;;;5095097;28;20243;-78
2023/11/08 10:57:37;;;;;;;1.60;1.50;;;15.50;99.90;;;;;;5092994;28;20763;-78
2023/11/08 11:00:07;;;;;;;2.17;1.70;;;15.60;99.90;;;;;;5089426;28;20273;-77
2023/11/08 11:02:45;;;;;;;2.08;1.80;;;15.10;99.90;;;;;;5092166;28;20201;-77
2023/11/08 11:05:15;;;;;;;1.75;1.65;;;14.70;99.90;;;;;;5091752;28;20204;-77
2023/11/08 11:07:43;;;;;;;2.95;1.83;;;14.50;99.90;;;;;;5090815;28;20626;-77
2023/11/08 11:10:13;;;;;;;2.35;1.60;;;14.60;99.90;;;;;;5091955;28;20190;-77
2023/11/08 11:13:23;;;;;;;2.00;1.80;;;14.70;99.90;;;;;;5082675;27;20285;-78
2023/11/08 11:16:00;;;;;;;2.30;2.10;;;14.70;99.90;;;;;;5087211;28;20698;-77
2023/11/08 11:18:32;;;;;;;2.08;1.98;;;14.70;99.90;;;;;;5084159;28;20285;-79
2023/11/08 11:21:06;;;;;;;2.30;1.88;;;14.70;99.90;;;;;;5084424;28;20199;-76
2023/11/08 11:23:37;;;;;;;1.70;1.60;;;14.90;99.90;;;;;;5085400;28;20269;-76
2023/11/08 11:26:05;;;;;;;2.20;2.00;;;15.10;99.90;;;;;;5088089;28;20243;-75
2023/11/08 11:28:51;;;;;;;1.85;1.70;;;15.20;99.90;;;;;;5084262;28;20231;-77
2023/11/08 11:31:32;;;;;;;2.20;1.80;;;15.10;99.90;;;;;;5087552;28;20216;-78
2023/11/08 11:33:59;;;;;;;1.60;1.50;;;15.20;99.90;;;;;;5087677;28;20217;-76
2023/11/08 11:36:26;;;;;;;1.70;1.60;;;15.20;99.90;;;;;;5090741;28;20193;-76
2023/11/08 11:39:10;;;;;;;3.72;1.67;;;15.20;99.90;;;;;;5090182;28;20610;-76
2023/11/08 11:41:37;;;;;;;1.80;1.70;;;15.00;99.90;;;;;;5087982;28;20887;-77
2023/11/08 11:44:10;;;;;;;2.33;1.75;;;15.00;99.90;;;;;;5089139;28;20307;-76
2023/11/08 11:46:37;;;;;;;1.75;1.65;;;15.00;99.90;;;;;;5083825;28;20205;-75
2023/11/08 11:49:14;;;;;;;4.15;1.70;;;14.90;99.90;;;;;;5086699;28;20910;-75
2023/11/08 11:51:42;;;;;;;1.50;1.40;;;15.10;99.90;;;;;;5086356;28;20213;-75
2023/11/08 11:54:13;;;;;;;2.08;1.83;;;15.50;99.90;;;;;;5087894;28;20217;-75
2023/11/08 11:56:42;;;;;;;2.10;1.90;;;15.70;99.90;;;;;;5087500;28;20206;-75
2023/11/08 11:59:10;;;;;;;3.05;1.90;;;15.80;99.90;;;;;;5086673;28;20202;-75
2023/11/08 12:01:38;;;;;;;2.00;1.90;;;15.80;99.90;;;;;;5085916;28;20197;-76
2023/11/08 12:04:05;;;;;;;1.80;1.70;;;16.00;99.90;;;;;;5085758;28;20229;-76
2023/11/08 12:06:33;;;;;;;1.60;1.50;;;16.10;99.90;;;;;;5086530;28;21071;-75
2023/11/08 12:09:00;;;;;;;1.63;1.52;;;15.90;99.90;;;;;;5088455;28;20202;-74
2023/11/08 12:11:27;;;;;;;1.90;1.80;;;16.20;99.90;;;;;;5085504;28;20307;-75
2023/11/08 12:13:55;;;;;;;1.67;1.58;;;16.40;99.90;;;;;;5087820;28;20220;-75
2023/11/08 12:16:24;;;;;;;1.60;1.50;;;16.50;99.90;;;;;;5084316;28;20204;-73
2023/11/08 12:18:52;;;;;;;1.60;1.50;;;16.20;99.90;;;;;;5088609;28;20286;-76
2023/11/08 12:21:19;;;;;;;1.58;1.48;;;16.00;99.90;;;;;;5083859;28;20197;-75
2023/11/08 12:23:48;;;;;;;1.20;1.20;;;15.60;99.90;;;;;;5082061;28;20213;-76
2023/11/08 12:26:16;;;;;;;1.98;1.33;;;15.60;99.90;;;;;;5077907;28;20209;-76
2023/11/08 12:28:44;;;;;;;2.28;1.40;;;15.80;99.90;;;;;;5077297;28;20978;-76
2023/11/08 12:31:13;;;;;;;1.63;1.52;;;15.90;99.90;;;;;;5070569;28;20287;-76
2023/11/08 12:33:42;;;;;;;1.30;1.30;;;15.80;99.90;;;;;;5073108;28;20225;-76
2023/11/08 12:36:09;;;;;;;1.60;1.50;;;15.70;99.90;;;;;;5070127;28;20230;-76
2023/11/08 12:38:40;;;;;;;1.83;1.33;;;15.60;99.90;;;;;;5072813;28;20201;-76
2023/11/08 12:41:08;;;;;;;2.72;1.50;;;15.70;99.90;;;;;;5073073;28;20210;-77
2023/11/08 12:43:36;;;;;;;1.27;1.27;;;15.70;99.90;;;;;;5074338;28;20218;-75
2023/11/08 12:46:05;;;;;;;4.00;1.85;;;15.80;99.90;;;;;;5073775;28;20747;-76
2023/11/08 12:48:35;;;;;;;1.80;1.70;;;15.90;99.90;;;;;;5071669;28;20227;-75
2023/11/08 12:51:05;;;;;;;1.40;1.30;;;16.10;99.90;;;;;;5071756;28;20217;-75
2023/11/08 12:53:33;;;;;;;1.60;1.50;;;16.00;99.90;;;;;;5072923;28;20307;-76
2023/11/08 12:56:01;;;;;;;1.30;1.20;;;15.70;99.90;;;;;;5076713;28;20855;-76
2023/11/08 12:58:29;;;;;;;1.40;1.30;;;15.70;99.90;;;;;;5077207;28;20198;-75